createdAt,value
2024-02-13T00:01:31.745Z,8.68
2024-02-13T00:04:01.066Z,9.53
2024-02-13T00:06:30.469Z,9.60
2024-02-13T00:08:59.781Z,8.30
2024-02-13T00:11:29.247Z,9.90
2024-02-13T00:13:58.681Z,8.63
2024-02-13T00:16:27.996Z,9.35
2024-02-13T00:18:58.966Z,9.53
2024-02-13T00:21:29.017Z,10.15
2024-02-13T00:23:58.798Z,9.15
2024-02-13T00:26:28.490Z,10.45
2024-02-13T00:28:57.803Z,9.10
2024-02-13T00:31:27.860Z,9.75
2024-02-13T00:33:57.192Z,7.62
2024-02-13T00:36:26.508Z,10.05
2024-02-13T00:38:56.911Z,9.55
2024-02-13T00:41:27.423Z,10.25
2024-02-13T00:43:56.755Z,10.48
2024-02-13T00:46:26.043Z,10.05
2024-02-13T00:48:57.105Z,8.95
2024-02-13T00:51:27.896Z,10.10
2024-02-13T00:53:57.427Z,9.08
2024-02-13T00:56:26.767Z,10.48
2024-02-13T00:58:59.289Z,9.75
2024-02-13T01:01:29.116Z,10.18
2024-02-13T01:03:58.498Z,9.30
2024-02-13T01:06:28.692Z,9.98
2024-02-13T01:08:58.131Z,9.00
2024-02-13T01:11:27.524Z,8.95
2024-02-13T01:13:57.659Z,9.33
2024-02-13T01:16:26.946Z,9.88
2024-02-13T01:18:56.941Z,10.13
2024-02-13T01:21:26.320Z,9.35
2024-02-13T01:23:55.617Z,10.60
2024-02-13T01:26:24.885Z,10.43
2024-02-13T01:28:54.276Z,10.72
2024-02-13T01:31:23.528Z,11.00
2024-02-13T01:33:52.924Z,9.78
2024-02-13T01:36:22.294Z,10.08
2024-02-13T01:38:51.932Z,10.18
2024-02-13T01:41:21.762Z,10.15
2024-02-13T01:43:51.331Z,10.78
2024-02-13T01:46:21.945Z,11.05
2024-02-13T01:48:51.384Z,12.20
2024-02-13T01:51:20.664Z,10.65
2024-02-13T01:53:50.031Z,12.30
2024-02-13T01:56:21.066Z,10.48
2024-02-13T01:58:51.600Z,11.48
2024-02-13T02:01:21.559Z,10.18
2024-02-13T02:03:51.730Z,11.25
2024-02-13T02:06:21.141Z,10.55
2024-02-13T02:08:50.656Z,10.90
2024-02-13T02:11:20.041Z,10.10
2024-02-13T02:13:50.655Z,10.85
2024-02-13T02:16:19.991Z,10.85
2024-02-13T02:18:49.367Z,12.18
2024-02-13T02:21:18.766Z,11.93
2024-02-13T02:23:48.108Z,11.30
2024-02-13T02:26:17.445Z,9.78
2024-02-13T02:28:47.675Z,11.05
2024-02-13T02:31:17.232Z,11.10
2024-02-13T02:33:47.744Z,10.90
2024-02-13T02:36:17.733Z,9.65
2024-02-13T02:38:47.077Z,10.18
2024-02-13T02:41:16.564Z,10.90
2024-02-13T02:43:46.032Z,10.23
2024-02-13T02:46:15.335Z,11.28
2024-02-13T02:48:44.764Z,10.63
2024-02-13T02:51:14.090Z,11.18
2024-02-13T02:53:43.748Z,9.60
2024-02-13T02:56:14.728Z,10.88
2024-02-13T02:58:44.562Z,10.43
2024-02-13T03:01:14.883Z,10.23
2024-02-13T03:03:44.319Z,9.93
2024-02-13T03:06:14.735Z,10.55
2024-02-13T03:08:45.470Z,9.25
2024-02-13T03:11:14.808Z,9.43
2024-02-13T03:13:44.972Z,10.40
2024-02-13T03:16:14.412Z,9.98
2024-02-13T03:18:43.819Z,9.68
2024-02-13T03:21:13.207Z,9.93
2024-02-13T03:23:44.464Z,10.58
2024-02-13T03:26:13.888Z,9.43
2024-02-13T03:28:43.143Z,10.68
2024-02-13T03:31:12.531Z,8.88
2024-02-13T03:33:41.966Z,9.75
2024-02-13T03:36:12.326Z,10.03
2024-02-13T03:38:43.368Z,10.68
2024-02-13T03:41:12.619Z,10.95
2024-02-13T03:43:45.994Z,11.40
2024-02-13T03:46:16.227Z,9.33
2024-02-13T03:48:45.680Z,9.50
2024-02-13T03:51:15.063Z,9.85
2024-02-13T03:53:44.713Z,10.53
2024-02-13T03:56:14.012Z,9.68
2024-02-13T03:58:43.449Z,9.30
2024-02-13T04:01:12.710Z,9.50
2024-02-13T04:03:42.056Z,8.55
2024-02-13T04:06:13.219Z,9.35
2024-02-13T04:08:44.504Z,10.20
2024-02-13T04:11:14.262Z,8.58
2024-02-13T04:13:43.623Z,7.97
2024-02-13T04:16:13.692Z,9.63
2024-02-13T04:18:43.140Z,9.20
2024-02-13T04:21:18.520Z,8.73
2024-02-13T04:23:49.901Z,10.23
2024-02-13T04:26:30.277Z,8.25
2024-02-13T04:28:50.458Z,9.20
2024-02-13T04:31:19.820Z,9.75
2024-02-13T04:33:49.319Z,9.23
2024-02-13T04:36:19.205Z,9.83
2024-02-13T04:38:48.806Z,9.73
2024-02-13T04:41:20.627Z,7.90
2024-02-13T04:43:51.098Z,9.05
2024-02-13T04:46:20.727Z,8.40
2024-02-13T04:48:50.107Z,8.60
2024-02-13T04:51:19.615Z,8.83
2024-02-13T04:53:49.169Z,8.13
2024-02-13T04:56:18.829Z,8.70
2024-02-13T04:58:48.509Z,8.40
2024-02-13T05:01:17.913Z,7.95
2024-02-13T05:03:51.784Z,7.62
2024-02-13T05:06:38.915Z,7.80
2024-02-13T05:09:08.216Z,7.25
2024-02-13T05:11:37.562Z,9.23
2024-02-13T05:14:07.956Z,6.87
2024-02-13T05:16:39.565Z,6.85
2024-02-13T05:19:09.887Z,7.62
2024-02-13T05:21:40.305Z,8.13
2024-02-13T05:24:10.800Z,6.10
2024-02-13T05:26:40.376Z,7.47
2024-02-13T05:29:09.827Z,7.17
2024-02-13T05:31:39.093Z,6.15
2024-02-13T05:34:10.081Z,6.40
2024-02-13T05:36:39.457Z,6.35
2024-02-13T05:39:09.196Z,7.17
2024-02-13T05:41:38.856Z,6.45
2024-02-13T05:44:08.606Z,5.78
2024-02-13T05:46:38.403Z,5.78
2024-02-13T05:49:07.739Z,6.92
2024-02-13T05:51:37.160Z,6.05
2024-02-13T05:54:07.144Z,5.17
2024-02-13T05:56:36.622Z,6.15
2024-02-13T05:59:06.766Z,5.45
2024-02-13T06:01:36.167Z,6.17
2024-02-13T06:04:07.714Z,6.62
2024-02-13T06:06:41.593Z,5.87
2024-02-13T06:09:10.944Z,5.10
2024-02-13T06:11:40.273Z,5.03
2024-02-13T06:14:09.708Z,5.45
2024-02-13T06:16:38.990Z,5.50
2024-02-13T06:19:08.422Z,4.80
2024-02-13T06:21:38.096Z,5.40
2024-02-13T06:24:07.796Z,4.87
2024-02-13T06:26:38.674Z,3.85
2024-02-13T06:29:09.336Z,6.03
2024-02-13T06:31:38.786Z,4.50
2024-02-13T06:34:08.164Z,4.55
2024-02-13T06:36:37.565Z,4.70
2024-02-13T06:39:06.953Z,5.15
2024-02-13T06:41:36.251Z,4.83
2024-02-13T06:44:06.998Z,5.35
2024-02-13T06:46:36.266Z,4.75
2024-02-13T06:49:05.727Z,4.85
2024-02-13T06:51:35.639Z,4.97
2024-02-13T06:54:05.348Z,4.58
2024-02-13T06:56:36.399Z,4.62
2024-02-13T06:59:07.400Z,4.40
2024-02-13T07:01:37.240Z,5.17
2024-02-13T07:04:07.665Z,4.78
2024-02-13T07:06:47.896Z,5.15
2024-02-13T07:09:08.340Z,4.37
2024-02-13T07:11:37.832Z,4.90
2024-02-13T07:14:07.394Z,4.47
2024-02-13T07:16:41.208Z,5.22
2024-02-13T07:19:11.546Z,4.53
2024-02-13T07:21:41.078Z,5.17
2024-02-13T07:24:11.745Z,5.28
2024-02-13T07:26:41.017Z,4.92
2024-02-13T07:29:11.866Z,5.05
2024-02-13T07:31:41.185Z,4.25
2024-02-13T07:34:10.725Z,4.28
2024-02-13T07:36:40.228Z,3.83
2024-02-13T07:39:11.149Z,4.22
2024-02-13T07:41:40.695Z,5.50
2024-02-13T07:44:10.060Z,4.42
2024-02-13T07:46:39.423Z,4.50
2024-02-13T07:49:09.697Z,4.58
2024-02-13T07:51:39.115Z,4.42
2024-02-13T07:54:08.408Z,4.35
2024-02-13T07:56:39.394Z,3.50
2024-02-13T07:59:10.585Z,4.45
2024-02-13T08:01:39.881Z,4.50
2024-02-13T08:04:09.244Z,4.03
2024-02-13T08:06:39.855Z,4.83
2024-02-13T08:09:09.946Z,4.65
2024-02-13T08:11:40.149Z,4.00
2024-02-13T08:14:11.518Z,3.60
2024-02-13T08:16:41.393Z,4.95
2024-02-13T08:19:11.694Z,3.77
2024-02-13T08:21:41.097Z,3.08
2024-02-13T08:24:11.069Z,3.35
2024-02-13T08:26:40.381Z,3.42
2024-02-13T08:29:10.435Z,3.05
2024-02-13T08:31:39.739Z,3.55
2024-02-13T08:34:09.409Z,3.60
2024-02-13T08:36:40.235Z,4.80
2024-02-13T08:39:11.202Z,3.40
2024-02-13T08:41:40.538Z,3.72
2024-02-13T08:44:10.527Z,3.65
2024-02-13T08:46:39.829Z,3.80
2024-02-13T08:49:09.450Z,3.90
2024-02-13T08:51:39.061Z,3.27
2024-02-13T08:54:10.229Z,3.22
2024-02-13T08:56:41.281Z,3.90
2024-02-13T08:59:11.146Z,3.00
2024-02-13T09:01:41.966Z,3.50
2024-02-13T09:04:13.555Z,4.15
2024-02-13T09:06:43.146Z,3.75
2024-02-13T09:09:14.012Z,3.45
2024-02-13T09:11:43.822Z,3.70
2024-02-13T09:14:14.523Z,4.00
2024-02-13T09:16:43.901Z,3.42
2024-02-13T09:19:13.351Z,3.80
2024-02-13T09:21:44.741Z,2.90
2024-02-13T09:26:44.848Z,3.55
2024-02-13T09:29:14.216Z,3.00
2024-02-13T09:31:46.433Z,3.45
2024-02-13T09:34:16.309Z,3.00
2024-02-13T09:36:45.820Z,2.70
2024-02-13T09:39:15.720Z,2.67
2024-02-13T09:41:45.169Z,2.60
2024-02-13T09:44:15.993Z,2.95
2024-02-13T09:46:45.758Z,3.02
2024-02-13T09:49:15.424Z,2.80
2024-02-13T09:51:47.700Z,3.08
2024-02-13T09:54:19.205Z,2.22
2024-02-13T09:56:48.678Z,3.00
2024-02-13T09:59:18.404Z,3.22
2024-02-13T10:01:48.077Z,2.83
2024-02-13T10:04:17.353Z,3.22
2024-02-13T10:06:46.843Z,2.62
2024-02-13T10:09:16.919Z,2.98
2024-02-13T10:11:47.916Z,2.90
2024-02-13T10:14:22.444Z,2.60
2024-02-13T10:16:51.839Z,3.27
2024-02-13T10:19:22.656Z,3.02
2024-02-13T10:21:52.779Z,2.65
2024-02-13T10:24:24.980Z,2.70
2024-02-13T10:26:55.041Z,2.55
2024-02-13T10:29:24.416Z,2.95
2024-02-13T10:31:55.430Z,2.50
2024-02-13T10:34:24.689Z,2.80
2024-02-13T10:36:54.253Z,2.95
2024-02-13T10:39:25.775Z,2.72
2024-02-13T10:41:58.621Z,2.60
2024-02-13T10:44:30.185Z,2.77
2024-02-13T10:47:01.309Z,2.98
2024-02-13T10:49:51.596Z,2.65
2024-02-13T10:52:24.712Z,2.52
2024-02-13T10:54:54.871Z,2.75
2024-02-13T10:57:24.638Z,2.52
2024-02-13T10:59:54.380Z,2.50
2024-02-13T11:02:24.012Z,2.90
2024-02-13T11:04:54.268Z,2.70
2024-02-13T11:07:23.631Z,2.50
2024-02-13T11:09:54.474Z,2.47
2024-02-13T11:12:24.164Z,2.67
2024-02-13T11:14:53.496Z,2.58
2024-02-13T11:17:24.725Z,2.80
2024-02-13T11:19:58.115Z,2.92
2024-02-13T11:22:38.794Z,2.72
2024-02-13T11:25:10.756Z,2.35
2024-02-13T11:27:45.412Z,2.75
2024-02-13T11:30:27.469Z,2.95
2024-02-13T11:33:02.902Z,2.75
2024-02-13T11:35:42.954Z,2.52
2024-02-13T11:38:13.755Z,2.60
2024-02-13T11:40:45.151Z,2.55
2024-02-13T11:43:21.821Z,2.50
2024-02-13T11:45:51.672Z,2.75
2024-02-13T11:48:23.127Z,2.45
2024-02-13T11:50:52.566Z,2.50
2024-02-13T11:53:22.075Z,2.30
2024-02-13T11:55:52.911Z,2.00
2024-02-13T11:58:23.586Z,1.47
2024-02-13T12:01:06.672Z,2.42
2024-02-13T12:03:37.031Z,2.02
2024-02-13T12:06:07.474Z,1.87
2024-02-13T12:08:40.117Z,1.57
2024-02-13T12:11:10.199Z,1.90
2024-02-13T12:13:40.183Z,1.65
2024-02-13T12:16:10.566Z,1.70
2024-02-13T12:18:41.133Z,1.80
2024-02-13T12:21:12.879Z,1.77
2024-02-13T12:23:50.392Z,2.37
2024-02-13T12:26:19.857Z,2.00
2024-02-13T12:28:59.428Z,1.52
2024-02-13T12:31:31.018Z,1.90
2024-02-13T12:34:08.174Z,1.80
2024-02-13T12:36:39.582Z,1.90
2024-02-13T12:39:16.839Z,1.62
2024-02-13T12:41:47.001Z,1.90
2024-02-13T12:44:16.718Z,1.90
2024-02-13T12:46:47.113Z,1.77
2024-02-13T12:49:18.081Z,1.95
2024-02-13T12:51:47.985Z,1.42
2024-02-13T12:54:17.349Z,1.37
2024-02-13T12:56:47.940Z,1.25
2024-02-13T12:59:18.924Z,1.12
2024-02-13T13:01:48.403Z,1.62
2024-02-13T13:04:18.145Z,0.98
2024-02-13T13:06:48.157Z,1.80
2024-02-13T13:09:26.361Z,1.47
2024-02-13T13:11:50.496Z,1.60
2024-02-13T13:14:21.627Z,1.50
2024-02-13T13:16:52.745Z,1.65
2024-02-13T13:19:24.167Z,1.45
2024-02-13T13:21:54.261Z,1.50
2024-02-13T13:24:24.244Z,1.42
2024-02-13T13:26:54.954Z,1.50
2024-02-13T13:29:24.588Z,1.67
2024-02-13T13:31:53.973Z,1.22
2024-02-13T13:34:25.247Z,1.60
2024-02-13T13:36:56.466Z,1.62
2024-02-13T13:39:27.502Z,1.47
2024-02-13T13:41:59.134Z,1.55
2024-02-13T13:44:29.993Z,1.60
2024-02-13T13:46:59.347Z,1.42
2024-02-13T13:49:28.649Z,1.90
2024-02-13T13:51:57.927Z,1.17
2024-02-13T13:54:27.216Z,1.37
2024-02-13T13:56:57.220Z,1.57
2024-02-13T13:59:26.666Z,1.50
2024-02-13T14:01:57.617Z,1.40
2024-02-13T14:04:27.595Z,1.40
2024-02-13T14:06:57.006Z,1.75
2024-02-13T14:09:26.409Z,1.20
2024-02-13T14:11:55.840Z,1.60
2024-02-13T14:14:25.249Z,1.30
2024-02-13T14:16:55.774Z,1.40
2024-02-13T14:19:25.370Z,1.12
2024-02-13T14:21:54.748Z,1.07
2024-02-13T14:24:24.069Z,1.30
2024-02-13T14:26:53.556Z,1.40
2024-02-13T14:29:23.588Z,1.07
2024-02-13T14:31:53.080Z,1.15
2024-02-13T14:34:24.079Z,1.62
2024-02-13T14:36:53.546Z,1.40
2024-02-13T14:39:23.186Z,1.10
2024-02-13T14:41:54.172Z,1.52
2024-02-13T14:44:23.539Z,1.07
2024-02-13T14:46:55.344Z,1.30
2024-02-13T14:49:26.447Z,1.20
2024-02-13T14:51:56.033Z,2.00
2024-02-13T14:54:25.385Z,1.62
2024-02-13T14:56:54.885Z,2.02
2024-02-13T14:59:26.277Z,1.55
2024-02-13T15:01:56.195Z,1.57
2024-02-13T15:04:25.653Z,1.40
2024-02-13T15:06:54.988Z,1.47
2024-02-13T15:09:24.274Z,1.27
2024-02-13T15:11:53.703Z,1.62
2024-02-13T15:14:24.006Z,1.20
2024-02-13T15:16:53.732Z,1.75
2024-02-13T15:19:26.570Z,1.60
2024-02-13T15:24:25.359Z,1.70
2024-02-13T15:26:55.281Z,1.55
2024-02-13T15:29:25.539Z,1.55
2024-02-13T15:31:55.284Z,1.70
2024-02-13T15:34:24.721Z,2.15
2024-02-13T15:37:07.509Z,2.00
2024-02-13T15:39:54.786Z,1.52
2024-02-13T15:42:44.781Z,1.62
2024-02-13T15:45:31.586Z,1.85
2024-02-13T15:48:01.359Z,1.70
2024-02-13T15:50:30.806Z,1.62
2024-02-13T15:53:01.168Z,2.30
2024-02-13T15:55:31.587Z,1.60
2024-02-13T15:58:01.103Z,1.50
2024-02-13T16:00:31.812Z,1.92
2024-02-13T16:03:04.501Z,1.90
2024-02-13T16:05:35.294Z,2.00
2024-02-13T16:08:06.451Z,1.92
2024-02-13T16:10:36.022Z,2.10
2024-02-13T16:13:05.662Z,1.87
2024-02-13T16:15:35.962Z,2.05
2024-02-13T16:18:05.662Z,2.52
2024-02-13T16:20:35.132Z,2.05
2024-02-13T16:23:05.803Z,2.10
2024-02-13T16:25:35.869Z,2.20
2024-02-13T16:28:06.924Z,2.70
2024-02-13T16:30:37.007Z,2.00
2024-02-13T16:33:08.173Z,2.42
2024-02-13T16:35:37.805Z,2.42
2024-02-13T16:38:07.129Z,1.92
2024-02-13T16:40:36.760Z,2.47
2024-02-13T16:43:06.165Z,2.37
2024-02-13T16:45:35.590Z,2.20
2024-02-13T16:48:05.537Z,3.17
2024-02-13T16:50:35.087Z,2.85
2024-02-13T16:53:05.827Z,3.58
2024-02-13T16:55:36.774Z,3.55
2024-02-13T16:58:07.263Z,3.62
2024-02-13T17:00:36.987Z,4.12
2024-02-13T17:03:08.399Z,3.55
2024-02-13T17:05:39.570Z,3.00
2024-02-13T17:08:10.700Z,6.47
2024-02-13T17:10:40.106Z,6.08
2024-02-13T17:13:09.780Z,5.00
2024-02-13T17:15:39.122Z,5.92
2024-02-13T17:18:08.472Z,5.28
2024-02-13T17:20:37.864Z,6.60
2024-02-13T17:23:09.282Z,4.67
2024-02-13T17:25:38.690Z,4.92
2024-02-13T17:28:08.094Z,4.97
2024-02-13T17:30:37.441Z,4.70
2024-02-13T17:33:06.998Z,3.72
2024-02-13T17:35:36.372Z,5.95
2024-02-13T17:38:06.019Z,3.60
2024-02-13T17:40:35.282Z,3.45
2024-02-13T17:43:06.062Z,4.28
2024-02-13T17:45:36.207Z,3.58
2024-02-13T17:48:05.814Z,3.12
2024-02-13T17:50:35.092Z,2.90
2024-02-13T17:53:04.491Z,3.22
2024-02-13T17:55:35.299Z,3.77
2024-02-13T17:58:04.995Z,3.35
2024-02-13T18:00:35.831Z,4.05
2024-02-13T18:03:05.566Z,3.50
2024-02-13T18:05:34.997Z,3.42
2024-02-13T18:08:05.401Z,3.40
2024-02-13T18:10:34.985Z,3.75
2024-02-13T18:13:06.066Z,4.17
2024-02-13T18:15:35.452Z,3.85
2024-02-13T18:18:06.669Z,4.00
2024-02-13T18:20:36.971Z,3.58
2024-02-13T18:23:08.011Z,3.60
2024-02-13T18:25:37.674Z,4.70
2024-02-13T18:28:07.308Z,5.58
2024-02-13T18:30:36.752Z,4.37
2024-02-13T18:33:10.922Z,5.00
2024-02-13T18:35:42.378Z,4.20
2024-02-13T18:38:11.748Z,6.20
2024-02-13T18:40:41.107Z,4.70
2024-02-13T18:43:10.378Z,4.10
2024-02-13T18:45:39.742Z,3.40
2024-02-13T18:48:09.452Z,4.25
2024-02-13T18:50:39.940Z,3.85
2024-02-13T18:53:09.473Z,3.37
2024-02-13T18:55:38.745Z,4.37
2024-02-13T18:58:08.656Z,3.83
2024-02-13T19:00:38.728Z,2.98
2024-02-13T19:03:08.966Z,3.77
2024-02-13T19:05:41.726Z,5.12
2024-02-13T19:08:11.545Z,8.15
2024-02-13T19:10:41.760Z,12.20
2024-02-13T19:13:11.026Z,7.72
2024-02-13T19:15:40.345Z,10.65
2024-02-13T19:18:16.856Z,8.43
2024-02-13T19:20:46.345Z,11.25
2024-02-13T19:23:17.591Z,6.53
2024-02-13T19:25:47.788Z,8.15
2024-02-13T19:28:18.109Z,5.15
2024-02-13T19:30:49.210Z,4.47
2024-02-13T19:33:19.151Z,7.30
2024-02-13T19:35:49.806Z,5.95
2024-02-13T19:38:20.436Z,5.95
2024-02-13T19:40:51.833Z,4.62
2024-02-13T19:43:21.317Z,5.05
2024-02-13T19:45:50.720Z,3.25
2024-02-13T19:48:20.343Z,3.40
2024-02-13T19:50:49.689Z,3.35
2024-02-13T19:53:19.099Z,3.90
2024-02-13T19:55:48.365Z,3.15
2024-02-13T19:58:17.621Z,4.12
2024-02-13T20:00:46.997Z,2.98
2024-02-13T20:03:16.356Z,3.33
2024-02-13T20:05:45.853Z,3.65
2024-02-13T20:08:15.926Z,3.20
2024-02-13T20:10:49.202Z,3.45
2024-02-13T20:13:19.107Z,3.45
2024-02-13T20:15:48.678Z,3.10
2024-02-13T20:18:20.240Z,3.60
2024-02-13T20:20:49.851Z,3.05
2024-02-13T20:23:19.930Z,3.17
2024-02-13T20:25:50.382Z,3.45
2024-02-13T20:28:20.031Z,3.17
2024-02-13T20:30:49.326Z,3.12
2024-02-13T20:33:19.603Z,2.80
2024-02-13T20:36:01.186Z,2.08
2024-02-13T20:38:31.660Z,2.77
2024-02-13T20:41:00.987Z,3.02
2024-02-13T20:43:30.407Z,5.53
2024-02-13T20:45:59.723Z,4.80
2024-02-13T20:48:29.866Z,3.80
2024-02-13T20:50:59.189Z,3.35
2024-02-13T20:53:28.974Z,2.75
2024-02-13T20:55:59.984Z,2.50
2024-02-13T20:58:32.174Z,2.45
2024-02-13T21:01:02.105Z,3.00
2024-02-13T21:03:31.671Z,2.40
2024-02-13T21:06:01.228Z,2.70
2024-02-13T21:08:30.744Z,2.95
2024-02-13T21:11:00.113Z,3.45
2024-02-13T21:13:29.456Z,2.70
2024-02-13T21:15:59.145Z,2.58
2024-02-13T21:18:28.606Z,2.85
2024-02-13T21:21:11.542Z,4.80
2024-02-13T21:23:42.587Z,3.37
2024-02-13T21:26:11.902Z,4.33
2024-02-13T21:28:41.317Z,3.90
2024-02-13T21:31:10.682Z,5.00
2024-02-13T21:33:40.141Z,4.95
2024-02-13T21:36:10.790Z,4.75
2024-02-13T21:38:40.194Z,4.53
2024-02-13T21:41:10.116Z,3.27
2024-02-13T21:43:39.538Z,3.80
2024-02-13T21:46:09.140Z,3.67
2024-02-13T21:48:38.603Z,3.60
2024-02-13T21:51:08.233Z,3.02
2024-02-13T21:53:38.069Z,2.95
2024-02-13T21:56:07.761Z,3.75
2024-02-13T21:58:37.457Z,4.03
2024-02-13T22:01:07.022Z,2.90
2024-02-13T22:03:36.733Z,3.98
2024-02-13T22:06:06.812Z,4.17
2024-02-13T22:08:36.345Z,3.08
2024-02-13T22:11:05.752Z,3.55
2024-02-13T22:13:35.073Z,3.30
2024-02-13T22:16:05.357Z,3.37
2024-02-13T22:18:34.708Z,4.20
2024-02-13T22:21:04.290Z,3.08
2024-02-13T22:23:34.273Z,3.15
2024-02-13T22:26:06.438Z,3.12
2024-02-13T22:28:35.761Z,3.70
2024-02-13T22:31:06.388Z,3.12
2024-02-13T22:33:35.986Z,2.52
2024-02-13T22:36:06.683Z,3.50
2024-02-13T22:38:36.108Z,4.35
2024-02-13T22:41:05.946Z,3.80
2024-02-13T22:43:35.334Z,3.65
2024-02-13T22:46:04.938Z,3.40
2024-02-13T22:48:34.994Z,4.08
2024-02-13T22:51:04.521Z,3.17
2024-02-13T22:53:33.840Z,4.20
2024-02-13T22:56:04.875Z,3.75
2024-02-13T22:58:34.171Z,4.15
2024-02-13T23:01:04.074Z,4.70
2024-02-13T23:03:34.069Z,4.22
2024-02-13T23:06:05.560Z,4.70
2024-02-13T23:08:35.986Z,4.67
2024-02-13T23:11:07.081Z,4.30
2024-02-13T23:13:42.440Z,5.55
2024-02-13T23:16:08.325Z,3.52
2024-02-13T23:18:38.384Z,4.80
2024-02-13T23:21:08.173Z,4.85
2024-02-13T23:23:37.674Z,4.97
2024-02-13T23:26:07.573Z,5.05
2024-02-13T23:28:48.314Z,5.15
2024-02-13T23:31:08.639Z,3.87
2024-02-13T23:33:39.478Z,4.83
2024-02-13T23:36:10.127Z,4.85
2024-02-13T23:38:39.632Z,4.83
2024-02-13T23:41:08.969Z,5.50
2024-02-13T23:43:38.282Z,5.47
2024-02-13T23:46:08.331Z,5.42
2024-02-13T23:48:38.416Z,5.72
2024-02-13T23:51:08.047Z,5.58
2024-02-13T23:53:37.800Z,5.97
2024-02-13T23:56:07.825Z,7.03
2024-02-13T23:58:37.260Z,5.05
